createdAt,value
2018-03-30T00:00:56.817Z,2.72
2018-03-30T00:01:56.714Z,2.65
2018-03-30T00:02:56.612Z,2.77
2018-03-30T00:03:56.507Z,2.80
2018-03-30T00:04:56.391Z,2.80
2018-03-30T00:05:56.288Z,2.74
2018-03-30T00:06:56.187Z,2.83
2018-03-30T00:07:56.082Z,2.79
2018-03-30T00:08:55.979Z,2.85
2018-03-30T00:09:55.877Z,2.79
2018-03-30T00:10:55.778Z,2.79
2018-03-30T00:11:55.658Z,2.83
2018-03-30T00:12:55.553Z,2.74
2018-03-30T00:13:55.449Z,2.85
2018-03-30T00:14:55.347Z,2.80
2018-03-30T00:15:55.243Z,2.80
2018-03-30T00:16:55.144Z,2.86
2018-03-30T00:17:55.037Z,2.82
2018-03-30T00:18:54.920Z,2.83
2018-03-30T00:19:55.117Z,2.82
2018-03-30T00:20:54.713Z,2.83
2018-03-30T00:21:54.609Z,2.87
2018-03-30T00:22:54.507Z,2.93
2018-03-30T00:23:54.403Z,2.93
2018-03-30T00:24:54.300Z,2.89
2018-03-30T00:25:54.185Z,2.92
2018-03-30T00:26:54.081Z,2.97
2018-03-30T00:27:53.978Z,3.01
2018-03-30T00:28:53.874Z,2.93
2018-03-30T00:29:53.771Z,2.95
2018-03-30T00:30:53.669Z,2.95
2018-03-30T00:31:53.565Z,2.97
2018-03-30T00:32:53.450Z,3.03
2018-03-30T00:33:53.351Z,3.04
2018-03-30T00:34:53.242Z,3.00
2018-03-30T00:35:53.139Z,3.11
2018-03-30T00:36:53.034Z,3.04
2018-03-30T00:37:52.938Z,3.05
2018-03-30T00:38:52.828Z,3.10
2018-03-30T00:39:52.728Z,3.05
2018-03-30T00:40:52.610Z,3.08
2018-03-30T00:41:52.507Z,3.11
2018-03-30T00:42:52.403Z,3.14
2018-03-30T00:43:52.300Z,3.14
2018-03-30T00:44:52.197Z,3.10
2018-03-30T00:45:52.094Z,3.21
2018-03-30T00:46:51.996Z,3.19
2018-03-30T00:47:51.886Z,3.23
2018-03-30T00:48:51.783Z,3.21
2018-03-30T00:49:51.669Z,3.23
2018-03-30T00:50:51.568Z,3.13
2018-03-30T00:51:51.460Z,3.23
2018-03-30T00:52:51.358Z,3.16
2018-03-30T00:53:51.254Z,3.14
2018-03-30T00:54:51.150Z,3.08
2018-03-30T00:55:51.047Z,3.10
2018-03-30T00:56:50.944Z,3.10
2018-03-30T00:57:50.840Z,3.07
2018-03-30T00:58:50.737Z,3.10
2018-03-30T00:59:50.634Z,3.07
2018-03-30T01:00:50.518Z,2.97
2018-03-30T01:01:50.415Z,2.92
2018-03-30T01:02:50.312Z,2.93
2018-03-30T01:03:50.209Z,2.95
2018-03-30T01:04:50.106Z,2.86
2018-03-30T01:05:50.003Z,2.85
2018-03-30T01:06:49.899Z,2.75
2018-03-30T01:07:49.796Z,2.72
2018-03-30T01:08:49.685Z,2.80
2018-03-30T01:09:49.576Z,2.75
2018-03-30T01:10:49.472Z,2.74
2018-03-30T01:11:49.369Z,2.60
2018-03-30T01:12:49.265Z,2.67
2018-03-30T01:13:49.163Z,2.67
2018-03-30T01:14:49.060Z,2.62
2018-03-30T01:15:48.955Z,2.57
2018-03-30T01:16:48.865Z,2.54
2018-03-30T01:17:48.738Z,2.43
2018-03-30T01:18:48.634Z,2.51
2018-03-30T01:19:48.530Z,2.42
2018-03-30T01:20:48.429Z,2.35
2018-03-30T01:21:48.328Z,2.26
2018-03-30T01:22:48.221Z,2.26
2018-03-30T01:23:48.117Z,2.14
2018-03-30T01:24:48.002Z,2.22
2018-03-30T01:25:47.898Z,2.14
2018-03-30T01:26:47.793Z,2.10
2018-03-30T01:27:47.695Z,2.08
2018-03-30T01:28:47.589Z,1.97
2018-03-30T01:29:47.484Z,2.07
2018-03-30T01:30:47.381Z,1.95
2018-03-30T01:31:47.274Z,1.99
2018-03-30T01:32:47.166Z,1.91
2018-03-30T01:33:47.060Z,1.91
2018-03-30T01:34:46.957Z,1.91
2018-03-30T01:35:46.852Z,1.81
2018-03-30T01:36:46.749Z,1.76
2018-03-30T01:37:46.634Z,1.71
2018-03-30T01:38:46.529Z,1.70
2018-03-30T01:39:46.426Z,1.62
2018-03-30T01:40:46.322Z,1.55
2018-03-30T01:41:46.220Z,1.58
2018-03-30T01:42:46.117Z,1.56
2018-03-30T01:43:46.014Z,1.45
2018-03-30T01:44:46.150Z,1.37
2018-03-30T01:45:45.795Z,1.44
2018-03-30T01:46:45.691Z,1.41
2018-03-30T01:47:45.589Z,1.42
2018-03-30T01:48:45.472Z,1.45
2018-03-30T01:49:45.368Z,1.41
2018-03-30T01:50:45.265Z,1.45
2018-03-30T01:51:45.161Z,1.42
2018-03-30T01:52:45.057Z,1.35
2018-03-30T01:53:44.954Z,1.44
2018-03-30T01:54:44.840Z,1.28
2018-03-30T01:55:44.736Z,1.34
2018-03-30T01:56:44.638Z,1.37
2018-03-30T01:57:44.529Z,1.41
2018-03-30T01:58:44.426Z,1.32
2018-03-30T01:59:44.310Z,1.34
2018-03-30T02:00:44.206Z,1.31
2018-03-30T02:01:44.103Z,1.42
2018-03-30T02:02:44.001Z,1.44
2018-03-30T02:03:43.902Z,1.44
2018-03-30T02:04:43.785Z,1.44
2018-03-30T02:05:43.673Z,1.59
2018-03-30T02:06:43.584Z,1.60
2018-03-30T02:07:43.472Z,1.53
2018-03-30T02:08:43.355Z,1.60
2018-03-30T02:09:43.251Z,1.62
2018-03-30T02:10:43.149Z,1.52
2018-03-30T02:11:43.045Z,1.56
2018-03-30T02:12:42.941Z,1.48
2018-03-30T02:13:42.829Z,1.44
2018-03-30T02:14:42.723Z,1.49
2018-03-30T02:15:42.620Z,1.49
2018-03-30T02:16:42.517Z,1.55
2018-03-30T02:17:42.400Z,1.55
2018-03-30T02:18:42.297Z,1.60
2018-03-30T02:19:42.194Z,1.62
2018-03-30T02:20:42.095Z,1.55
2018-03-30T02:21:42.023Z,1.71
2018-03-30T02:22:41.872Z,1.71
2018-03-30T02:23:41.769Z,1.66
2018-03-30T02:24:41.665Z,1.71
2018-03-30T02:25:41.549Z,1.68
2018-03-30T02:26:41.445Z,1.71
2018-03-30T02:27:41.341Z,1.71
2018-03-30T02:28:41.239Z,1.81
2018-03-30T02:29:41.136Z,1.76
2018-03-30T02:30:41.022Z,1.70
2018-03-30T02:31:40.921Z,1.71
2018-03-30T02:32:40.815Z,1.73
2018-03-30T02:33:40.716Z,1.70
2018-03-30T02:34:40.594Z,1.71
2018-03-30T02:35:40.492Z,1.68
2018-03-30T02:36:40.388Z,1.66
2018-03-30T02:37:40.286Z,1.67
2018-03-30T02:38:40.172Z,1.67
2018-03-30T02:39:40.066Z,1.66
2018-03-30T02:40:39.963Z,1.67
2018-03-30T02:41:39.859Z,1.56
2018-03-30T02:42:39.756Z,1.59
2018-03-30T02:43:39.640Z,1.56
2018-03-30T02:44:39.536Z,1.45
2018-03-30T02:45:39.433Z,1.41
2018-03-30T02:46:39.340Z,1.38
2018-03-30T02:47:39.226Z,1.31
2018-03-30T02:48:39.111Z,1.31
2018-03-30T02:49:39.015Z,1.19
2018-03-30T02:50:38.905Z,1.22
2018-03-30T02:51:38.802Z,1.16
2018-03-30T02:52:38.686Z,1.10
2018-03-30T02:53:38.582Z,1.08
2018-03-30T02:54:38.478Z,1.06
2018-03-30T02:55:38.374Z,0.99
2018-03-30T02:56:38.271Z,0.99
2018-03-30T02:57:38.221Z,0.87
2018-03-30T02:58:38.054Z,0.95
2018-03-30T02:59:37.949Z,0.87
2018-03-30T03:00:37.847Z,0.94
2018-03-30T03:01:37.743Z,0.95
2018-03-30T03:02:37.627Z,0.87
2018-03-30T03:03:37.523Z,0.88
2018-03-30T03:04:37.421Z,0.83
2018-03-30T03:05:37.317Z,0.78
2018-03-30T03:06:37.215Z,0.81
2018-03-30T03:07:37.100Z,0.81
2018-03-30T03:08:36.994Z,0.80
2018-03-30T03:09:36.892Z,0.76
2018-03-30T03:10:36.788Z,0.91
2018-03-30T03:11:36.672Z,0.86
2018-03-30T03:12:36.568Z,0.88
2018-03-30T03:13:36.467Z,0.80
2018-03-30T03:14:36.362Z,0.73
2018-03-30T03:15:36.258Z,0.74
2018-03-30T03:16:36.143Z,0.77
2018-03-30T03:17:36.040Z,0.80
2018-03-30T03:18:35.936Z,0.76
2018-03-30T03:19:35.832Z,0.91
2018-03-30T03:20:35.716Z,0.91
2018-03-30T03:21:35.614Z,0.95
2018-03-30T03:22:35.509Z,0.95
2018-03-30T03:23:35.406Z,1.02
2018-03-30T03:24:35.293Z,1.04
2018-03-30T03:25:35.187Z,1.05
2018-03-30T03:26:35.085Z,1.08
2018-03-30T03:27:34.981Z,1.13
2018-03-30T03:28:34.866Z,1.02
2018-03-30T03:29:34.797Z,1.06
2018-03-30T03:30:34.659Z,1.02
2018-03-30T03:31:34.555Z,1.05
2018-03-30T03:32:34.439Z,1.12
2018-03-30T03:33:34.336Z,1.06
2018-03-30T03:34:34.233Z,1.08
2018-03-30T03:35:34.130Z,1.05
2018-03-30T03:36:34.014Z,0.94
2018-03-30T03:37:33.912Z,1.06
2018-03-30T03:38:33.806Z,1.08
2018-03-30T03:39:33.703Z,0.98
2018-03-30T03:40:33.588Z,0.94
2018-03-30T03:41:33.487Z,1.04
2018-03-30T03:42:33.382Z,0.83
2018-03-30T03:43:33.281Z,0.87
2018-03-30T03:44:33.162Z,0.84
2018-03-30T03:45:33.059Z,0.77
2018-03-30T03:46:32.955Z,0.84
2018-03-30T03:47:32.840Z,0.77
2018-03-30T03:48:32.737Z,0.76
2018-03-30T03:49:32.633Z,0.69
2018-03-30T03:50:32.530Z,0.68
2018-03-30T03:51:32.415Z,0.59
2018-03-30T03:52:32.310Z,0.56
2018-03-30T03:53:32.210Z,0.58
2018-03-30T03:54:32.103Z,0.47
2018-03-30T03:55:31.989Z,0.46
2018-03-30T03:56:31.889Z,0.50
2018-03-30T03:57:31.782Z,0.49
2018-03-30T03:58:31.678Z,0.52
2018-03-30T03:59:31.567Z,0.56
2018-03-30T04:00:31.459Z,0.40
2018-03-30T04:01:31.355Z,0.52
2018-03-30T04:02:31.243Z,0.37
2018-03-30T04:03:31.137Z,0.47
2018-03-30T04:04:31.034Z,0.39
2018-03-30T04:05:30.931Z,0.36
2018-03-30T04:06:30.813Z,0.37
2018-03-30T04:07:30.707Z,0.41
2018-03-30T04:08:30.607Z,0.29
2018-03-30T04:09:30.763Z,0.26
2018-03-30T04:10:30.388Z,0.29
2018-03-30T04:11:30.286Z,0.28
2018-03-30T04:12:30.182Z,0.28
2018-03-30T04:13:30.069Z,0.23
2018-03-30T04:14:29.962Z,0.39
2018-03-30T04:15:29.859Z,0.43
2018-03-30T04:16:29.755Z,0.46
2018-03-30T04:17:29.641Z,0.59
2018-03-30T04:18:29.537Z,0.52
2018-03-30T04:19:29.433Z,0.69
2018-03-30T04:20:29.330Z,0.76
2018-03-30T04:21:29.213Z,0.74
2018-03-30T04:22:29.110Z,0.70
2018-03-30T04:23:29.007Z,0.77
2018-03-30T04:24:29.191Z,0.69
2018-03-30T04:25:28.788Z,0.76
2018-03-30T04:26:28.688Z,0.77
2018-03-30T04:27:28.591Z,0.62
2018-03-30T04:28:28.465Z,0.65
2018-03-30T04:29:28.362Z,0.69
2018-03-30T04:30:28.259Z,0.63
2018-03-30T04:31:28.156Z,0.63
2018-03-30T04:32:28.041Z,0.59
2018-03-30T04:33:27.938Z,0.55
2018-03-30T04:34:27.866Z,0.62
2018-03-30T04:35:27.717Z,0.63
2018-03-30T04:36:27.614Z,0.59
2018-03-30T04:37:27.512Z,0.41
2018-03-30T04:38:27.410Z,0.52
2018-03-30T04:39:27.291Z,0.43
2018-03-30T04:40:27.190Z,0.44
2018-03-30T04:41:27.090Z,0.26
2018-03-30T04:42:26.969Z,0.26
2018-03-30T04:43:26.866Z,0.26
2018-03-30T04:44:27.062Z,0.22
2018-03-30T04:45:26.659Z,0.28
2018-03-30T04:46:26.544Z,0.22
2018-03-30T04:47:26.441Z,0.23
2018-03-30T04:48:26.338Z,0.21
2018-03-30T04:49:26.221Z,0.31
2018-03-30T04:50:26.117Z,0.22
2018-03-30T04:51:26.014Z,0.29
2018-03-30T04:52:25.914Z,0.36
2018-03-30T04:53:25.795Z,0.23
2018-03-30T04:54:25.692Z,0.25
2018-03-30T04:55:25.589Z,0.29
2018-03-30T04:56:25.485Z,0.32
2018-03-30T04:57:25.369Z,0.28
2018-03-30T04:58:25.266Z,0.26
2018-03-30T04:59:25.162Z,0.26
2018-03-30T05:00:25.047Z,0.23
2018-03-30T05:01:24.944Z,0.23
2018-03-30T05:02:24.841Z,0.19
2018-03-30T05:03:24.726Z,0.36
2018-03-30T05:04:24.627Z,0.28
2018-03-30T05:05:24.518Z,0.39
2018-03-30T05:06:24.414Z,0.43
2018-03-30T05:07:24.300Z,0.40
2018-03-30T05:08:24.205Z,0.55
2018-03-30T05:09:24.092Z,0.43
2018-03-30T05:10:23.989Z,0.41
2018-03-30T05:11:23.872Z,0.56
2018-03-30T05:12:23.769Z,0.44
2018-03-30T05:13:23.673Z,0.60
2018-03-30T05:14:23.576Z,0.59
2018-03-30T05:15:23.454Z,0.63
2018-03-30T05:16:23.347Z,0.73
2018-03-30T05:17:23.249Z,0.66
2018-03-30T05:18:23.138Z,0.74
2018-03-30T05:19:23.021Z,0.81
2018-03-30T05:20:22.921Z,0.83
2018-03-30T05:21:22.815Z,0.88
2018-03-30T05:22:22.700Z,0.96
2018-03-30T05:23:22.595Z,1.04
2018-03-30T05:24:22.493Z,1.05
2018-03-30T05:25:22.389Z,1.05
2018-03-30T05:26:22.275Z,1.06
2018-03-30T05:27:22.171Z,1.05
2018-03-30T05:28:22.066Z,1.06
2018-03-30T05:29:21.963Z,1.20
2018-03-30T05:30:21.859Z,1.16
2018-03-30T05:31:21.745Z,1.19
2018-03-30T05:32:21.643Z,1.32
2018-03-30T05:33:21.538Z,1.50
2018-03-30T05:34:21.434Z,1.66
2018-03-30T05:35:21.319Z,1.81
2018-03-30T05:36:21.229Z,2.04
2018-03-30T05:37:21.113Z,2.39
2018-03-30T05:38:21.008Z,2.69
2018-03-30T05:39:20.905Z,2.80
2018-03-30T05:40:20.790Z,3.11
2018-03-30T05:41:20.687Z,3.25
2018-03-30T05:42:20.589Z,3.31
2018-03-30T05:43:20.480Z,3.47
2018-03-30T05:44:20.376Z,3.59
2018-03-30T05:45:20.263Z,3.81
2018-03-30T05:46:20.216Z,4.06
2018-03-30T05:47:20.065Z,4.17
2018-03-30T05:48:19.951Z,4.14
2018-03-30T05:49:19.846Z,4.12
2018-03-30T05:50:19.743Z,4.16
2018-03-30T05:51:19.639Z,4.22
2018-03-30T05:52:19.536Z,4.45
2018-03-30T05:53:19.433Z,4.44
2018-03-30T05:54:19.319Z,4.55
2018-03-30T05:55:19.215Z,4.67
2018-03-30T05:56:19.112Z,4.93
2018-03-30T05:57:19.015Z,4.92
2018-03-30T05:58:18.905Z,4.96
2018-03-30T05:59:19.102Z,5.00
2018-03-30T06:00:18.699Z,5.07
2018-03-30T06:01:18.594Z,5.02
2018-03-30T06:02:18.494Z,4.78
2018-03-30T06:03:18.391Z,4.62
2018-03-30T06:04:18.285Z,4.90
2018-03-30T06:05:18.182Z,5.17
2018-03-30T06:06:18.078Z,5.54
2018-03-30T06:07:17.965Z,5.84
2018-03-30T06:08:17.860Z,6.08
2018-03-30T06:09:17.769Z,6.30
2018-03-30T06:10:17.653Z,6.57
2018-03-30T06:11:17.550Z,6.84
2018-03-30T06:12:17.446Z,6.92
2018-03-30T06:13:17.343Z,6.99
2018-03-30T06:14:17.240Z,7.17
2018-03-30T06:15:17.149Z,7.18
2018-03-30T06:16:17.101Z,7.40
2018-03-30T06:17:16.942Z,7.48
2018-03-30T06:18:16.839Z,7.63
2018-03-30T06:19:17.091Z,7.48
2018-03-30T06:20:16.632Z,7.23
2018-03-30T06:21:16.529Z,6.85
2018-03-30T06:22:16.426Z,6.52
2018-03-30T06:23:16.322Z,6.45
2018-03-30T06:24:16.220Z,6.46
2018-03-30T06:25:16.115Z,6.56
2018-03-30T06:26:16.026Z,6.56
2018-03-30T06:27:15.920Z,6.69
2018-03-30T06:28:15.818Z,6.77
2018-03-30T06:29:15.714Z,6.87
2018-03-30T06:30:15.614Z,7.06
2018-03-30T06:31:15.520Z,7.38
2018-03-30T06:32:15.420Z,7.67
2018-03-30T06:33:15.302Z,7.60
2018-03-30T06:34:15.211Z,7.61
2018-03-30T06:35:15.107Z,7.58
2018-03-30T06:36:15.004Z,7.47
2018-03-30T06:37:14.900Z,7.54
2018-03-30T06:38:14.823Z,7.39
2018-03-30T06:39:14.707Z,7.38
2018-03-30T06:40:14.615Z,7.40
2018-03-30T06:41:14.499Z,7.17
2018-03-30T06:42:14.396Z,7.13
2018-03-30T06:43:14.293Z,7.14
2018-03-30T06:44:14.237Z,7.23
2018-03-30T06:45:14.099Z,7.18
2018-03-30T06:46:13.997Z,7.36
2018-03-30T06:47:13.896Z,7.29
2018-03-30T06:48:13.790Z,7.36
2018-03-30T06:49:13.698Z,7.32
2018-03-30T06:50:13.595Z,7.13
2018-03-30T06:51:13.491Z,6.77
2018-03-30T06:52:13.388Z,6.54
2018-03-30T06:53:13.298Z,6.54
2018-03-30T06:54:13.195Z,6.69
2018-03-30T06:55:13.092Z,6.54
2018-03-30T06:56:12.988Z,6.84
2018-03-30T06:57:12.897Z,7.07
2018-03-30T06:58:12.793Z,7.29
2018-03-30T06:59:12.940Z,7.48
2018-03-30T07:00:12.586Z,7.20
2018-03-30T07:01:12.496Z,7.24
2018-03-30T07:02:12.386Z,7.29
2018-03-30T07:03:12.290Z,7.07
2018-03-30T07:04:12.187Z,6.42
2018-03-30T07:05:12.094Z,6.26
2018-03-30T07:06:11.991Z,6.24
2018-03-30T07:07:11.888Z,6.19
2018-03-30T07:08:11.790Z,6.31
2018-03-30T07:09:11.709Z,6.52
2018-03-30T07:10:11.591Z,6.78
2018-03-30T07:11:11.488Z,6.69
2018-03-30T07:12:11.385Z,6.46
2018-03-30T07:13:11.303Z,6.74
2018-03-30T07:14:11.190Z,6.85
2018-03-30T07:15:11.087Z,6.87
2018-03-30T07:16:10.989Z,6.92
2018-03-30T07:17:10.893Z,6.89
2018-03-30T07:18:10.791Z,6.88
2018-03-30T07:19:10.938Z,6.67
2018-03-30T07:20:10.583Z,6.28
2018-03-30T07:21:10.493Z,6.24
2018-03-30T07:22:10.388Z,6.09
2018-03-30T07:23:10.285Z,5.97
2018-03-30T07:24:10.182Z,6.16
2018-03-30T07:25:10.079Z,6.19
2018-03-30T07:26:09.989Z,6.19
2018-03-30T07:27:09.886Z,6.26
2018-03-30T07:28:09.782Z,6.17
2018-03-30T07:29:09.682Z,6.27
2018-03-30T07:30:09.586Z,6.38
2018-03-30T07:31:09.485Z,6.30
2018-03-30T07:32:09.380Z,6.42
2018-03-30T07:33:09.277Z,6.59
2018-03-30T07:34:09.190Z,6.56
2018-03-30T07:35:09.085Z,6.51
2018-03-30T07:36:08.980Z,6.54
2018-03-30T07:37:08.878Z,6.42
2018-03-30T07:38:08.774Z,6.59
2018-03-30T07:39:08.671Z,6.42
2018-03-30T07:40:08.579Z,6.54
2018-03-30T07:41:08.476Z,6.56
2018-03-30T07:42:08.372Z,6.63
2018-03-30T07:43:08.270Z,6.64
2018-03-30T07:44:08.165Z,6.63
2018-03-30T07:45:08.078Z,6.64
2018-03-30T07:46:07.971Z,6.62
2018-03-30T07:47:07.869Z,6.62
2018-03-30T07:48:07.766Z,6.57
2018-03-30T07:49:07.662Z,6.56
2018-03-30T07:50:07.570Z,6.64
2018-03-30T07:51:07.467Z,6.72
2018-03-30T07:52:07.364Z,6.63
2018-03-30T07:53:07.260Z,6.70
2018-03-30T07:54:07.159Z,6.77
2018-03-30T07:55:07.068Z,6.78
2018-03-30T07:56:06.965Z,6.81
2018-03-30T07:57:06.861Z,6.64
2018-03-30T07:58:06.762Z,6.85
2018-03-30T07:59:06.916Z,6.85
2018-03-30T08:00:06.562Z,6.99
2018-03-30T08:01:06.460Z,7.00
2018-03-30T08:02:06.355Z,6.95
2018-03-30T08:03:06.254Z,7.07
2018-03-30T08:04:06.162Z,7.00
2018-03-30T08:05:06.059Z,6.96
2018-03-30T08:06:05.956Z,7.03
2018-03-30T08:07:05.853Z,7.18
2018-03-30T08:08:05.761Z,7.33
2018-03-30T08:09:05.704Z,7.39
2018-03-30T08:10:05.555Z,7.60
2018-03-30T08:11:05.450Z,7.53
2018-03-30T08:12:05.361Z,7.75
2018-03-30T08:13:05.258Z,7.67
2018-03-30T08:14:05.154Z,7.57
2018-03-30T08:15:05.052Z,7.38
2018-03-30T08:16:04.962Z,7.06
2018-03-30T08:17:04.876Z,7.15
2018-03-30T08:18:04.752Z,7.29
2018-03-30T08:19:04.949Z,7.28
2018-03-30T08:20:04.558Z,7.42
2018-03-30T08:21:04.475Z,7.43
2018-03-30T08:22:04.362Z,7.51
2018-03-30T08:23:04.249Z,7.56
2018-03-30T08:24:04.160Z,7.72
2018-03-30T08:25:04.055Z,7.63
2018-03-30T08:26:03.950Z,7.51
2018-03-30T08:27:03.850Z,7.43
2018-03-30T08:28:03.746Z,7.60
2018-03-30T08:29:03.655Z,7.66
2018-03-30T08:30:03.552Z,7.82
2018-03-30T08:31:03.450Z,7.79
2018-03-30T08:32:03.357Z,7.66
2018-03-30T08:33:03.253Z,7.83
2018-03-30T08:34:03.149Z,7.75
2018-03-30T08:35:03.046Z,7.87
2018-03-30T08:36:02.945Z,7.98
2018-03-30T08:37:02.853Z,7.95
2018-03-30T08:38:02.749Z,8.13
2018-03-30T08:39:02.901Z,8.08
2018-03-30T08:40:02.554Z,8.10
2018-03-30T08:41:02.452Z,7.91
2018-03-30T08:42:02.347Z,7.88
2018-03-30T08:43:02.247Z,7.83
2018-03-30T08:44:02.155Z,7.88
2018-03-30T08:45:02.052Z,7.88
2018-03-30T08:46:01.949Z,7.97
2018-03-30T08:47:01.845Z,7.98
2018-03-30T08:48:01.754Z,7.95
2018-03-30T08:49:01.661Z,8.06
2018-03-30T08:50:01.550Z,8.09
2018-03-30T08:51:01.457Z,8.06
2018-03-30T08:52:01.362Z,8.10
2018-03-30T08:53:01.250Z,8.08
2018-03-30T08:54:01.150Z,8.09
2018-03-30T08:55:01.055Z,8.13
2018-03-30T08:56:00.952Z,8.19
2018-03-30T08:57:00.848Z,7.98
2018-03-30T08:58:00.746Z,7.93
2018-03-30T08:59:00.656Z,7.94
2018-03-30T09:00:00.552Z,7.98
2018-03-30T09:01:00.450Z,7.72
2018-03-30T09:02:00.356Z,7.60
2018-03-30T09:03:00.253Z,7.56
2018-03-30T09:04:00.150Z,7.51
2018-03-30T09:05:00.050Z,7.43
2018-03-30T09:05:59.958Z,7.50
2018-03-30T09:06:59.853Z,7.47
2018-03-30T09:07:59.750Z,7.51
2018-03-30T09:08:59.663Z,7.39
2018-03-30T09:09:59.573Z,7.61
2018-03-30T09:10:59.452Z,7.76
2018-03-30T09:11:59.348Z,7.83
2018-03-30T09:12:59.258Z,7.98
2018-03-30T09:13:59.176Z,8.10
2018-03-30T09:14:59.054Z,8.13
2018-03-30T09:15:58.949Z,8.20
2018-03-30T09:16:58.857Z,8.01
2018-03-30T09:17:58.768Z,7.97
2018-03-30T09:18:58.901Z,7.83
2018-03-30T09:19:58.560Z,7.79
2018-03-30T09:20:58.457Z,7.91
2018-03-30T09:21:58.359Z,7.90
2018-03-30T09:22:58.263Z,8.01
2018-03-30T09:23:58.159Z,7.93
2018-03-30T09:24:58.056Z,8.05
2018-03-30T09:25:57.952Z,8.01
2018-03-30T09:26:57.862Z,7.98
2018-03-30T09:27:57.758Z,7.94
2018-03-30T09:28:57.656Z,7.82
2018-03-30T09:29:57.564Z,8.13
2018-03-30T09:30:57.461Z,8.24
2018-03-30T09:31:57.358Z,8.30
2018-03-30T09:32:57.254Z,8.48
2018-03-30T09:33:57.164Z,8.46
2018-03-30T09:34:57.061Z,8.30
2018-03-30T09:35:56.957Z,8.36
2018-03-30T09:36:56.865Z,8.24
2018-03-30T09:37:56.762Z,8.06
2018-03-30T09:38:56.661Z,8.03
2018-03-30T09:39:56.561Z,8.08
2018-03-30T09:40:56.465Z,7.91
2018-03-30T09:41:56.363Z,7.98
2018-03-30T09:42:56.262Z,7.97
2018-03-30T09:43:56.168Z,8.06
2018-03-30T09:44:56.064Z,8.05
2018-03-30T09:45:55.971Z,7.97
2018-03-30T09:46:55.871Z,7.91
2018-03-30T09:47:55.767Z,7.88
2018-03-30T09:48:55.665Z,7.85
2018-03-30T09:49:55.572Z,7.82
2018-03-30T09:50:55.469Z,8.05
2018-03-30T09:51:55.366Z,8.26
2018-03-30T09:52:55.317Z,8.52
2018-03-30T09:53:55.177Z,8.76
2018-03-30T09:54:55.070Z,8.97
2018-03-30T09:55:54.966Z,9.10
2018-03-30T09:56:54.875Z,9.19
2018-03-30T09:57:54.784Z,9.03
2018-03-30T09:58:54.680Z,9.02
2018-03-30T09:59:54.577Z,9.02
2018-03-30T10:00:54.485Z,8.89
2018-03-30T10:01:54.383Z,9.10
2018-03-30T10:02:54.279Z,9.16
2018-03-30T10:03:54.176Z,9.28
2018-03-30T10:04:54.086Z,9.18
2018-03-30T10:05:53.983Z,9.11
2018-03-30T10:06:53.879Z,9.25
2018-03-30T10:07:53.788Z,9.28
2018-03-30T10:08:53.685Z,9.32
2018-03-30T10:09:53.596Z,9.21
2018-03-30T10:10:53.491Z,9.23
2018-03-30T10:11:53.388Z,9.25
2018-03-30T10:12:53.296Z,9.46
2018-03-30T10:13:53.193Z,9.43
2018-03-30T10:14:53.091Z,9.51
2018-03-30T10:15:53.000Z,9.58
2018-03-30T10:16:52.896Z,9.61
2018-03-30T10:17:52.805Z,9.73
2018-03-30T10:18:52.701Z,9.86
2018-03-30T10:19:52.598Z,10.05
2018-03-30T10:20:52.507Z,9.72
2018-03-30T10:21:52.404Z,9.58
2018-03-30T10:22:52.313Z,9.54
2018-03-30T10:23:52.211Z,9.77
2018-03-30T10:24:52.107Z,9.66
2018-03-30T10:25:52.017Z,9.62
2018-03-30T10:26:51.914Z,9.48
2018-03-30T10:27:51.821Z,9.46
2018-03-30T10:28:51.718Z,9.61
2018-03-30T10:29:51.629Z,9.64
2018-03-30T10:30:51.526Z,9.40
2018-03-30T10:31:51.421Z,9.26
2018-03-30T10:32:51.330Z,8.92
2018-03-30T10:33:51.226Z,8.91
2018-03-30T10:34:51.137Z,8.97
2018-03-30T10:35:51.033Z,9.10
2018-03-30T10:36:50.941Z,9.22
2018-03-30T10:37:50.841Z,9.22
2018-03-30T10:38:50.985Z,9.28
2018-03-30T10:39:50.648Z,9.46
2018-03-30T10:40:50.542Z,9.54
2018-03-30T10:41:50.438Z,9.68
2018-03-30T10:42:50.346Z,9.61
2018-03-30T10:43:50.243Z,9.66
2018-03-30T10:44:50.140Z,9.40
2018-03-30T10:45:50.050Z,9.28
2018-03-30T10:46:49.946Z,8.97
2018-03-30T10:47:49.858Z,8.94
2018-03-30T10:48:49.752Z,8.95
2018-03-30T10:49:49.651Z,9.16
2018-03-30T10:50:49.558Z,9.10
2018-03-30T10:51:49.467Z,8.89
2018-03-30T10:52:49.351Z,8.97
2018-03-30T10:53:49.260Z,9.14
2018-03-30T10:54:49.157Z,9.13
2018-03-30T10:55:49.053Z,9.04
2018-03-30T10:56:48.967Z,8.97
2018-03-30T10:57:48.860Z,9.08
2018-03-30T10:58:49.057Z,9.10
2018-03-30T10:59:48.666Z,8.99
2018-03-30T11:00:48.574Z,8.99
2018-03-30T11:01:48.459Z,9.03
2018-03-30T11:02:48.368Z,9.06
2018-03-30T11:03:48.267Z,9.02
2018-03-30T11:04:48.163Z,9.00
2018-03-30T11:05:48.071Z,9.13
2018-03-30T11:06:47.967Z,9.10
2018-03-30T11:07:47.863Z,9.14
2018-03-30T11:08:47.763Z,9.16
2018-03-30T11:09:47.674Z,9.02
2018-03-30T11:10:47.570Z,9.11
2018-03-30T11:11:47.464Z,9.14
2018-03-30T11:12:47.372Z,8.97
2018-03-30T11:13:47.271Z,9.04
2018-03-30T11:14:47.165Z,9.03
2018-03-30T11:15:47.063Z,9.03
2018-03-30T11:16:46.971Z,9.06
2018-03-30T11:17:46.870Z,9.06
2018-03-30T11:18:47.065Z,9.04
2018-03-30T11:19:46.673Z,9.02
2018-03-30T11:20:46.570Z,9.06
2018-03-30T11:21:46.467Z,9.10
2018-03-30T11:22:46.367Z,9.08
2018-03-30T11:23:46.273Z,9.03
2018-03-30T11:24:46.174Z,9.02
2018-03-30T11:25:46.068Z,8.94
2018-03-30T11:26:45.964Z,8.99
2018-03-30T11:27:45.872Z,9.02
2018-03-30T11:28:45.769Z,9.08
2018-03-30T11:29:45.666Z,9.04
2018-03-30T11:30:45.566Z,9.03
2018-03-30T11:31:45.472Z,9.08
2018-03-30T11:32:45.368Z,9.03
2018-03-30T11:33:45.266Z,9.10
2018-03-30T11:34:45.166Z,9.03
2018-03-30T11:35:45.070Z,8.97
2018-03-30T11:36:44.967Z,8.89
2018-03-30T11:37:44.909Z,8.94
2018-03-30T11:38:45.065Z,9.02
2018-03-30T11:39:44.670Z,8.88
2018-03-30T11:40:44.567Z,9.10
2018-03-30T11:41:44.464Z,9.00
2018-03-30T11:42:44.362Z,9.04
2018-03-30T11:43:44.269Z,8.97
2018-03-30T11:44:44.186Z,8.89
2018-03-30T11:45:44.063Z,9.08
2018-03-30T11:46:43.959Z,9.10
2018-03-30T11:47:43.857Z,9.00
2018-03-30T11:48:43.766Z,9.11
2018-03-30T11:49:43.663Z,9.08
2018-03-30T11:50:43.559Z,9.13
2018-03-30T11:51:43.455Z,9.18
2018-03-30T11:52:43.365Z,9.28
2018-03-30T11:53:43.261Z,9.36
2018-03-30T11:54:43.157Z,9.43
2018-03-30T11:55:43.066Z,9.31
2018-03-30T11:56:42.952Z,9.18
2018-03-30T11:57:42.861Z,9.34
2018-03-30T11:58:42.758Z,9.32
2018-03-30T11:59:42.654Z,9.37
2018-03-30T12:00:42.551Z,9.44
2018-03-30T12:01:42.459Z,9.43
2018-03-30T12:02:42.356Z,9.56
2018-03-30T12:03:42.253Z,9.58
2018-03-30T12:04:42.154Z,9.64
2018-03-30T12:05:42.047Z,9.62
2018-03-30T12:06:41.956Z,9.69
2018-03-30T12:07:41.852Z,9.62
2018-03-30T12:08:41.749Z,9.59
2018-03-30T12:09:41.646Z,9.62
2018-03-30T12:10:41.554Z,9.62
2018-03-30T12:11:41.451Z,9.65
2018-03-30T12:12:41.348Z,9.64
2018-03-30T12:13:41.245Z,9.62
2018-03-30T12:14:41.143Z,9.66
2018-03-30T12:15:41.051Z,9.72
2018-03-30T12:16:40.948Z,9.73
2018-03-30T12:17:40.844Z,9.58
2018-03-30T12:18:40.990Z,9.64
2018-03-30T12:19:40.649Z,9.50
2018-03-30T12:20:40.546Z,9.44
2018-03-30T12:21:40.445Z,9.46
2018-03-30T12:22:40.340Z,9.48
2018-03-30T12:23:40.248Z,9.56
2018-03-30T12:24:40.146Z,9.64
2018-03-30T12:25:40.043Z,9.56
2018-03-30T12:26:39.941Z,9.56
2018-03-30T12:27:39.836Z,9.66
2018-03-30T12:28:39.744Z,9.66
2018-03-30T12:29:39.645Z,9.76
2018-03-30T12:30:39.538Z,9.61
2018-03-30T12:31:39.435Z,9.73
2018-03-30T12:32:39.345Z,9.80
2018-03-30T12:33:39.241Z,9.68
2018-03-30T12:34:39.138Z,9.80
2018-03-30T12:35:39.034Z,9.91
2018-03-30T12:36:38.943Z,9.97
2018-03-30T12:37:38.840Z,10.10
2018-03-30T12:38:38.990Z,10.05
2018-03-30T12:39:38.633Z,10.05
2018-03-30T12:40:38.542Z,10.10
2018-03-30T12:41:38.440Z,10.19
2018-03-30T12:42:38.337Z,10.20
2018-03-30T12:43:38.233Z,10.12
2018-03-30T12:44:38.142Z,10.09
2018-03-30T12:45:38.038Z,10.20
2018-03-30T12:46:37.935Z,10.19
2018-03-30T12:47:37.836Z,10.12
2018-03-30T12:48:37.730Z,10.09
2018-03-30T12:49:37.639Z,10.20
2018-03-30T12:50:37.535Z,10.23
2018-03-30T12:51:37.431Z,10.38
2018-03-30T12:52:37.329Z,10.40
2018-03-30T12:53:37.238Z,10.42
2018-03-30T12:54:37.147Z,10.44
2018-03-30T12:55:37.030Z,10.42
2018-03-30T12:56:36.928Z,10.42
2018-03-30T12:57:36.850Z,10.35
2018-03-30T12:58:36.738Z,10.35
2018-03-30T12:59:36.630Z,10.38
2018-03-30T13:00:36.538Z,10.30
2018-03-30T13:01:36.435Z,10.23
2018-03-30T13:02:36.331Z,10.30
2018-03-30T13:03:36.229Z,10.30
2018-03-30T13:04:36.161Z,10.35
2018-03-30T13:05:36.036Z,10.33
2018-03-30T13:06:35.931Z,10.41
2018-03-30T13:07:35.829Z,10.28
2018-03-30T13:08:35.743Z,10.44
2018-03-30T13:09:35.639Z,10.40
2018-03-30T13:10:35.530Z,10.42
2018-03-30T13:11:35.452Z,10.42
2018-03-30T13:12:35.338Z,10.56
2018-03-30T13:13:35.233Z,10.51
2018-03-30T13:14:35.131Z,10.56
2018-03-30T13:15:35.029Z,10.59
2018-03-30T13:16:34.936Z,10.74